KFAM/FAM METAR and TAF weather

Enter ICAO airport designator
Station Type Date Time Source
KFAM METAR 2022/09/28 18:56 UTC NOAA

KFAM 281856Z AUTO 03008G16KT 10SM CLR 19/03 A3041 RMK AO2 SLP306 T01940028


Station Type Date Time Source
KFAM Decoded METAR 2022/09/28 18:56 UTC NOAA

Farmington Airport, MO, United States (KFAM) 37-46N 090-26W
Sep 28, 2022 - 02:56 PM EDT / 2022.09.28 1856 UTC
Wind: from the NNE (030 degrees) at 9 MPH (8 KT) gusting to 18 MPH (16 KT):0
Visibility: 10 mile(s):0
Sky conditions: clear
Temperature: 66.9 F (19.4 C)
Dew Point: 37.0 F (2.8 C)
Relative Humidity: 33%
Pressure (altimeter): 30.41 in. Hg (1029 hPa)
ob: KFAM 281856Z AUTO 03008G16KT 10SM CLR 19/03 A3041 RMK AO2 SLP306 T01940028
cycle: 19

Station Type Date Time Source
KFAM TAF UTC NOAA

Error!

Example: see airport list